WetterOnline ( https://www.wetteronline.de )

Wetter aktuell Rheinstetten

Aktuelles Wetter: Rheinstetten (116m)

6-stündlich | Neueste Meldungen
Ortszeit Temperatur Wetter
Di, 22.10. 14:00 15.3° C bewölkt
Di, 22.10. 8:00 12.3° C fast wolkenlos
Di, 22.10. 2:00 13.1° C wolkenlos
Mo, 21.10. 20:00 13.7° C leichter Regen
Mo, 21.10. 14:00 15.6° C bedeckt
Mo, 21.10. 8:00 13.9° C bewölkt
Mo, 21.10. 2:00 13.7° C bedeckt
So, 20.10. 20:00 14.7° C wolkig
Ortszeit Temperatur Wetter
Di, 22.10. 16:00 15.8° C wolkenlos
Di, 22.10. 15:30 16.0° C wolkenlos
Di, 22.10. 15:20 16.0° C wolkenlos
Di, 22.10. 15:10 16.0° C wolkenlos
Di, 22.10. 15:00 15.7° C wolkenlos
Di, 22.10. 14:50 15.7° C wolkenlos
Di, 22.10. 14:30 15.9° C wolkig
Di, 22.10. 14:00 15.3° C bewölkt
Di, 22.10. 13:30 14.8° C wolkig
Di, 22.10. 13:00 14.6° C wolkig
Di, 22.10. 12:30 14.6° C bewölkt
Ortszeit Relative Feuchte Sichtweite
Di, 22.10. 14:00 82% 22 km
Di, 22.10. 8:00 98% 4.9 km
Di, 22.10. 2:00 98% 18 km
Mo, 21.10. 20:00 92% 35 km
Mo, 21.10. 14:00 81% 65 km
Mo, 21.10. 8:00 97% 6 km
Mo, 21.10. 2:00 96% 11 km
So, 20.10. 20:00 96% 17 km
Ortszeit Relative Feuchte Sichtweite
Di, 22.10. 16:00 80% 24 km
Di, 22.10. 15:30 81% 26 km
Di, 22.10. 15:20 81% -
Di, 22.10. 15:10 80% -
Di, 22.10. 15:00 78% 27 km
Di, 22.10. 14:50 78% -
Di, 22.10. 14:30 79% 26 km
Di, 22.10. 14:00 82% 22 km
Di, 22.10. 13:30 86% 23 km
Di, 22.10. 13:00 85% 26 km
Di, 22.10. 12:30 85% 24 km
Ortszeit Niederschlagsmenge Niederschlagsart
Di, 22.10. 14:00 0.0 l/m2 in 6 Std. -
Di, 22.10. 8:00 0.3 l/m2 in 12 Std. -
Di, 22.10. 2:00 0.3 l/m2 in 6 Std. Regen
Mo, 21.10. 20:00 0.3 l/m2 in 12 Std. Regen
Mo, 21.10. 14:00 0.2 l/m2 in 6 Std. Regen
Mo, 21.10. 8:00 0.2 l/m2 in 12 Std. Regen
Mo, 21.10. 2:00 0.2 l/m2 in 6 Std. Regen
So, 20.10. 20:00 0.1 l/m2 in 12 Std. -
Ortszeit Niederschlagsmenge Niederschlagsart
Di, 22.10. 16:00 0.0 l/m2 in 1 Std. -
Di, 22.10. 15:30 0.0 l/m2 in 1 Std. -
Di, 22.10. 15:20 keine Meldung -
Di, 22.10. 15:10 keine Meldung -
Di, 22.10. 15:00 0.0 l/m2 in 1 Std. -
Di, 22.10. 14:50 keine Meldung -
Di, 22.10. 14:30 0.0 l/m2 in 1 Std. -
Di, 22.10. 14:00 0.0 l/m2 in 1 Std. -
Di, 22.10. 13:30 0.0 l/m2 in 1 Std. -
Di, 22.10. 13:00 0.0 l/m2 in 1 Std. -
Di, 22.10. 12:30 0.0 l/m2 in 1 Std. -
Ortszeit Stärke Spitze Richtung
km/h Bft. km/h Grad Sektor
Di, 22.10. 14:00 15 3 19 60° NO
Di, 22.10. 8:00 7 2 14 50° NO
Di, 22.10. 2:00 2 1 9 100° O
Mo, 21.10. 20:00 6 1 20 150° SO
Mo, 21.10. 14:00 13 3 33 220° SW
Mo, 21.10. 8:00 0 0 18 - -
Mo, 21.10. 2:00 11 2 25 120° SO
So, 20.10. 20:00 4 1 14 30° NO
Ortszeit Stärke Spitze Richtung
km/h Bft. km/h Grad Sektor
Di, 22.10. 16:00 18 3 25 30° NO
Di, 22.10. 15:30 18 3 25 50° NO
Di, 22.10. 15:20 18 3 - 50° NO
Di, 22.10. 15:10 18 3 - 50° NO
Di, 22.10. 15:00 17 3 28 50° NO
Di, 22.10. 14:50 17 3 - 50° NO
Di, 22.10. 14:30 18 3 25 50° NO
Di, 22.10. 14:00 15 3 19 60° NO
Di, 22.10. 13:30 9 2 17 70° O
Di, 22.10. 13:00 11 2 18 60° NO
Di, 22.10. 12:30 11 2 18 50° NO
Ortszeit Untergrenze Bedeckung Gattung
total tief tief mittel hoch
Di, 22.10. 14:00 450 m 7/8 7/8 - - -
Di, 22.10. 8:00 8400 m 1/8 0/8 - - -
Di, 22.10. 2:00 - 0/8 0/8 - - -
Mo, 21.10. 20:00 1500 m 1/8 1/8 - - -
Mo, 21.10. 14:00 2100 m 8/8 8/8 - - -
Mo, 21.10. 8:00 1800 m 7/8 7/8 - - -
Mo, 21.10. 2:00 5700 m 8/8 8/8 - - -
So, 20.10. 20:00 5700 m 6/8 6/8 - - -
Ortszeit Bedeckungsgrad in Achtel und Wolkenuntergrenze
Di, 22.10. 16:00 keine Wolken
Di, 22.10. 15:30 keine Wolken
Di, 22.10. 15:20 keine Wolken
Di, 22.10. 15:10 keine Wolken
Di, 22.10. 15:00 keine Wolken
Di, 22.10. 14:50 keine Wolken
Di, 22.10. 14:30 5(510m)
Di, 22.10. 14:00 7(450m)
Di, 22.10. 13:30 5(360m)
Di, 22.10. 13:00 5(390m)
Di, 22.10. 12:30 7(360m)
Ortszeit Luftdruck NN (hPa) Tendenz (hPa in 3 Std.)
Di, 22.10. 14:00 1024 - 0,6
Di, 22.10. 8:00 1023 - 0,5
Di, 22.10. 2:00 1024 + 0,3
Mo, 21.10. 20:00 1022 + 1,5
Mo, 21.10. 14:00 1020 + 2,0
Mo, 21.10. 8:00 1016 + 2,0
Mo, 21.10. 2:00 1011 + 2,0
So, 20.10. 20:00 1009 + 1,4
Ortszeit Luftdruck NN (hPa) Tendenz (hPa in 3 Std.)
Di, 22.10. 16:00 1023 - 1,7
Di, 22.10. 15:30 1023 - 1,5
Di, 22.10. 15:20 1023 keine Meldung
Di, 22.10. 15:10 1023 keine Meldung
Di, 22.10. 15:00 1024 - 1,4
Di, 22.10. 14:50 1024 keine Meldung
Di, 22.10. 14:30 1024 - 1,3
Di, 22.10. 14:00 1024 - 0,6
Di, 22.10. 13:30 1025 + 0,1
Di, 22.10. 13:00 1025 + 0,5
Di, 22.10. 12:30 1025 + 0,7
Ortszeit Schneehöhe (cm)
Di, 22.10. 14:00 0
Di, 22.10. 8:00 0
Di, 22.10. 2:00 0
Mo, 21.10. 20:00 0
Mo, 21.10. 14:00 0
Mo, 21.10. 8:00 0
Mo, 21.10. 2:00 0
So, 20.10. 20:00 0
Ortszeit Schneehöhe (cm)
Di, 22.10. 16:00 0
Di, 22.10. 15:30 0
Di, 22.10. 15:20 0
Di, 22.10. 15:10 0
Di, 22.10. 15:00 0
Di, 22.10. 14:50 0
Di, 22.10. 14:30 0
Di, 22.10. 14:00 0
Di, 22.10. 13:30 0
Di, 22.10. 13:00 0
Di, 22.10. 12:30 0
Link zu dieser Seite / Seite empfehlen

Das Wetter in ...